createdAt,value
2018-07-17T00:04:57.351Z,18.30
2018-07-17T00:07:26.433Z,18.10
2018-07-17T00:09:55.497Z,18.00
2018-07-17T00:12:24.949Z,17.90
2018-07-17T00:14:53.952Z,17.90
2018-07-17T00:17:22.980Z,17.80
2018-07-17T00:19:52.050Z,17.70
2018-07-17T00:22:21.024Z,17.60
2018-07-17T00:24:50.060Z,17.50
2018-07-17T00:27:19.085Z,17.50
2018-07-17T00:29:48.758Z,17.40
2018-07-17T00:34:47.237Z,17.30
2018-07-17T00:37:16.228Z,17.30
2018-07-17T00:39:45.267Z,17.20
2018-07-17T00:42:14.320Z,17.20
2018-07-17T00:44:43.340Z,17.20
2018-07-17T00:47:12.539Z,17.20
2018-07-17T00:49:41.543Z,17.20
2018-07-17T00:52:10.504Z,17.20
2018-07-17T00:54:39.479Z,17.10
2018-07-17T00:57:08.448Z,17.10
2018-07-17T00:59:37.455Z,17.10
2018-07-17T01:02:11.915Z,17.10
2018-07-17T01:04:46.537Z,17.10
2018-07-17T01:07:21.076Z,17.10
2018-07-17T01:09:55.618Z,17.00
2018-07-17T01:12:24.153Z,17.10
2018-07-17T01:14:57.927Z,17.10
2018-07-17T01:17:27.548Z,17.00
2018-07-17T01:19:56.583Z,17.00
2018-07-17T01:22:25.823Z,17.00
2018-07-17T01:24:54.943Z,17.00
2018-07-17T01:27:23.950Z,17.00
2018-07-17T01:29:52.923Z,17.00
2018-07-17T01:32:21.908Z,17.00
2018-07-17T01:34:50.939Z,17.10
2018-07-17T01:37:19.964Z,17.10
2018-07-17T01:42:17.619Z,17.00
2018-07-17T01:44:46.727Z,17.00
2018-07-17T01:47:15.700Z,17.00
2018-07-17T01:49:44.748Z,17.00
2018-07-17T01:54:42.847Z,17.00
2018-07-17T01:57:11.836Z,17.00
2018-07-17T01:59:41.098Z,17.00
2018-07-17T02:02:10.135Z,17.00
2018-07-17T02:04:39.160Z,17.00
2018-07-17T02:07:08.351Z,17.00
2018-07-17T02:09:37.330Z,17.00
2018-07-17T02:12:06.419Z,17.00
2018-07-17T02:14:35.404Z,16.90
2018-07-17T02:17:04.628Z,16.90
2018-07-17T02:22:02.368Z,16.90
2018-07-17T02:24:31.390Z,16.80
2018-07-17T02:27:00.584Z,16.80
2018-07-17T02:29:30.491Z,16.80
2018-07-17T02:31:59.452Z,16.70
2018-07-17T02:36:57.148Z,16.70
2018-07-17T02:39:26.116Z,16.70
2018-07-17T02:44:23.799Z,16.60
2018-07-17T02:46:53.679Z,16.60
2018-07-17T02:49:22.723Z,16.60
2018-07-17T02:51:51.713Z,16.50
2018-07-17T02:54:20.774Z,16.50
2018-07-17T02:56:50.724Z,16.50
2018-07-17T02:59:19.983Z,16.50
2018-07-17T03:04:17.666Z,16.50
2018-07-17T03:06:46.647Z,16.50
2018-07-17T03:09:15.664Z,16.50
2018-07-17T03:11:44.687Z,16.50
2018-07-17T03:14:13.701Z,16.50
2018-07-17T03:21:40.456Z,16.30
2018-07-17T03:24:09.889Z,16.20
2018-07-17T03:26:38.976Z,16.20
2018-07-17T03:29:08.210Z,16.10
2018-07-17T03:34:05.917Z,15.90
2018-07-17T03:39:04.956Z,15.80
2018-07-17T03:41:34.001Z,15.80
2018-07-17T03:44:03.020Z,15.70
2018-07-17T03:46:32.030Z,15.70
2018-07-17T03:49:01.064Z,15.60
2018-07-17T03:53:59.348Z,15.50
2018-07-17T03:56:28.331Z,15.50
2018-07-17T03:58:57.312Z,15.50
2018-07-17T04:01:26.828Z,15.50
2018-07-17T04:03:55.818Z,15.50
2018-07-17T04:06:24.765Z,15.50
2018-07-17T04:08:53.784Z,15.60
2018-07-17T04:11:22.790Z,15.60
2018-07-17T04:13:51.775Z,15.70
2018-07-17T04:16:20.779Z,15.80
2018-07-17T04:18:49.744Z,15.80
2018-07-17T04:21:18.777Z,15.90
2018-07-17T04:23:47.826Z,15.90
2018-07-17T04:31:14.231Z,16.10
2018-07-17T04:33:43.259Z,16.10
2018-07-17T04:36:12.388Z,16.20
2018-07-17T04:38:41.364Z,16.30
2018-07-17T04:41:10.351Z,16.30
2018-07-17T04:43:39.350Z,16.40
2018-07-17T04:46:08.308Z,16.50
2018-07-17T04:48:37.402Z,16.60
2018-07-17T04:53:35.299Z,16.90
2018-07-17T04:56:04.463Z,17.60
2018-07-17T04:58:33.662Z,19.10
2018-07-17T05:03:31.453Z,22.30
2018-07-17T05:06:00.526Z,23.70
2018-07-17T05:08:29.679Z,24.70
2018-07-17T05:13:27.485Z,26.60
2018-07-17T05:15:56.501Z,27.40
2018-07-17T05:18:25.516Z,28.10
2018-07-17T05:20:54.518Z,28.90
2018-07-17T05:23:23.599Z,29.60
2018-07-17T05:25:52.655Z,30.20
2018-07-17T05:28:21.647Z,30.70
2018-07-17T05:30:50.694Z,31.40
2018-07-17T05:35:48.415Z,32.50
2018-07-17T05:38:17.423Z,32.70
2018-07-17T05:40:46.415Z,32.70
2018-07-17T05:43:15.472Z,33.10
2018-07-17T05:45:44.439Z,33.10
2018-07-17T05:48:14.043Z,33.70
2018-07-17T05:50:43.036Z,34.30
2018-07-17T05:55:40.695Z,35.20
2018-07-17T05:58:09.793Z,35.30
2018-07-17T06:00:38.919Z,35.90
2018-07-17T06:03:08.352Z,36.40
2018-07-17T06:08:06.452Z,36.60
2018-07-17T06:10:35.443Z,36.80
2018-07-17T06:13:04.437Z,37.40
2018-07-17T06:15:33.467Z,37.20
2018-07-17T06:18:03.129Z,37.10
2018-07-17T06:20:32.183Z,36.80
2018-07-17T06:23:01.197Z,36.80
2018-07-17T06:25:30.285Z,37.10
2018-07-17T06:28:00.403Z,36.90
2018-07-17T06:30:29.567Z,36.60
2018-07-17T06:32:58.768Z,37.30
2018-07-17T06:35:27.776Z,37.70
2018-07-17T06:37:56.846Z,37.60
2018-07-17T06:40:25.917Z,38.30
2018-07-17T06:42:54.920Z,38.50
2018-07-17T06:45:23.960Z,38.50
2018-07-17T06:47:53.097Z,39.00
2018-07-17T06:50:22.372Z,39.40
2018-07-17T06:52:51.249Z,39.40
2018-07-17T06:55:20.785Z,39.70
2018-07-17T06:57:49.857Z,40.20
2018-07-17T07:00:18.892Z,40.00
2018-07-17T07:02:47.955Z,39.90
2018-07-17T07:05:16.951Z,40.60
2018-07-17T07:07:46.095Z,40.80
2018-07-17T07:10:15.116Z,41.00
2018-07-17T07:12:44.071Z,40.10
2018-07-17T07:15:13.052Z,39.60
2018-07-17T07:17:42.044Z,39.90
2018-07-17T07:20:11.004Z,40.30
2018-07-17T07:22:40.040Z,40.30
2018-07-17T07:27:37.763Z,41.10
2018-07-17T07:30:07.275Z,40.40
2018-07-17T07:32:37.211Z,40.10
2018-07-17T07:35:06.298Z,40.40
2018-07-17T07:37:35.480Z,40.50
2018-07-17T07:42:34.259Z,40.40
2018-07-17T07:45:03.382Z,40.00
2018-07-17T07:47:32.367Z,40.40
2018-07-17T07:50:01.452Z,40.60
2018-07-17T07:52:30.780Z,40.20
2018-07-17T07:55:00.027Z,39.60
2018-07-17T07:57:29.075Z,39.60
2018-07-17T07:59:58.148Z,39.50
2018-07-17T08:04:55.932Z,39.00
2018-07-17T08:07:25.001Z,37.80
2018-07-17T08:09:53.992Z,36.20
2018-07-17T08:12:23.034Z,34.50
2018-07-17T08:14:52.070Z,33.70
2018-07-17T08:17:21.060Z,32.80
2018-07-17T08:19:50.147Z,31.70
2018-07-17T08:22:19.221Z,30.70
2018-07-17T08:24:48.363Z,30.50
2018-07-17T08:27:17.448Z,30.40
2018-07-17T08:29:46.447Z,30.10
2018-07-17T08:32:15.458Z,30.00
2018-07-17T08:34:44.538Z,29.80
2018-07-17T08:37:13.516Z,29.60
2018-07-17T08:42:11.139Z,29.30
2018-07-17T08:44:40.127Z,28.80
2018-07-17T08:47:09.175Z,28.40
2018-07-17T08:49:38.275Z,28.40
2018-07-17T08:52:07.375Z,28.50
2018-07-17T08:54:36.540Z,28.50
2018-07-17T08:57:05.515Z,28.60
2018-07-17T08:59:34.527Z,28.70
2018-07-17T09:02:03.487Z,28.70
2018-07-17T09:04:32.515Z,28.70
2018-07-17T09:07:01.777Z,28.70
2018-07-17T09:09:31.564Z,28.60
2018-07-17T09:12:00.614Z,28.70
2018-07-17T09:14:30.036Z,28.80
2018-07-17T09:16:59.361Z,28.90
2018-07-17T09:19:28.660Z,28.80
2018-07-17T09:21:57.762Z,28.70
2018-07-17T09:24:26.956Z,28.90
2018-07-17T09:26:55.980Z,29.00
2018-07-17T09:29:24.955Z,28.90
2018-07-17T09:31:53.934Z,29.00
2018-07-17T09:34:22.916Z,29.00
2018-07-17T09:36:51.918Z,29.10
2018-07-17T09:39:20.915Z,29.20
2018-07-17T09:41:49.884Z,29.30
2018-07-17T09:44:19.079Z,29.40
2018-07-17T09:46:48.093Z,29.50
2018-07-17T09:49:17.219Z,29.50
2018-07-17T09:51:46.255Z,29.50
2018-07-17T09:56:44.018Z,29.60
2018-07-17T09:59:12.984Z,29.70
2018-07-17T10:01:47.463Z,29.70
2018-07-17T10:04:16.456Z,29.70
2018-07-17T10:06:45.489Z,29.60
2018-07-17T10:09:14.467Z,29.70
2018-07-17T10:14:12.146Z,29.80
2018-07-17T10:16:41.132Z,29.90
2018-07-17T10:19:10.059Z,29.80
2018-07-17T10:21:39.030Z,29.80
2018-07-17T10:24:08.067Z,29.80
2018-07-17T10:26:37.215Z,29.80
2018-07-17T10:29:07.043Z,29.90
2018-07-17T10:34:04.676Z,30.00
2018-07-17T10:36:33.712Z,30.00
2018-07-17T10:39:02.974Z,29.70
2018-07-17T10:41:32.104Z,29.70
2018-07-17T10:44:01.171Z,29.80
2018-07-17T10:48:58.960Z,30.00
2018-07-17T10:51:28.006Z,30.20
2018-07-17T10:53:57.112Z,30.30
2018-07-17T10:56:26.936Z,30.40
2018-07-17T10:58:56.037Z,30.40
2018-07-17T11:01:25.114Z,30.40
2018-07-17T11:06:22.694Z,30.50
2018-07-17T11:08:51.740Z,30.50
2018-07-17T11:11:20.772Z,30.50
2018-07-17T11:13:49.990Z,30.60
2018-07-17T11:16:19.945Z,30.60
2018-07-17T11:18:49.039Z,30.50
2018-07-17T11:21:18.035Z,30.60
2018-07-17T11:23:47.046Z,30.50
2018-07-17T11:26:16.945Z,30.50
2018-07-17T11:28:45.995Z,30.50
2018-07-17T11:31:14.963Z,30.50
2018-07-17T11:33:43.918Z,30.50
2018-07-17T11:36:12.927Z,30.50
2018-07-17T11:38:41.930Z,30.50
2018-07-17T11:41:10.891Z,30.40
2018-07-17T11:43:39.920Z,30.30
2018-07-17T11:46:08.891Z,30.20
2018-07-17T11:48:37.861Z,30.40
2018-07-17T11:51:07.056Z,30.40
2018-07-17T11:53:36.135Z,30.40
2018-07-17T11:58:33.883Z,30.50
2018-07-17T12:01:02.905Z,30.60
2018-07-17T12:03:32.040Z,30.60
2018-07-17T12:08:29.940Z,30.70
2018-07-17T12:10:59.092Z,30.70
2018-07-17T12:13:28.172Z,30.80
2018-07-17T12:15:57.416Z,30.70
2018-07-17T12:18:26.723Z,30.80
2018-07-17T12:20:56.787Z,30.90
2018-07-17T12:25:54.595Z,31.00
2018-07-17T12:30:52.310Z,31.10
2018-07-17T12:33:21.351Z,31.00
2018-07-17T12:35:50.363Z,30.70
2018-07-17T12:38:19.387Z,30.70
2018-07-17T12:40:48.437Z,30.70
2018-07-17T12:43:17.393Z,30.80
2018-07-17T12:45:46.408Z,30.90
2018-07-17T12:53:13.789Z,30.90
2018-07-17T12:55:42.997Z,30.80
2018-07-17T12:58:12.207Z,30.70
2018-07-17T13:00:41.866Z,30.40
2018-07-17T13:05:39.558Z,30.30
2018-07-17T13:08:09.260Z,30.30
2018-07-17T13:10:38.826Z,30.30
2018-07-17T13:13:07.838Z,30.40
2018-07-17T13:15:36.811Z,30.30
2018-07-17T13:18:05.892Z,30.30
2018-07-17T13:20:34.940Z,30.30
2018-07-17T13:23:03.923Z,30.40
2018-07-17T13:28:01.652Z,30.40
2018-07-17T13:30:30.702Z,30.30
2018-07-17T13:32:59.739Z,30.30
2018-07-17T13:35:28.792Z,30.10
2018-07-17T13:37:57.864Z,30.10
2018-07-17T13:40:26.950Z,30.10
2018-07-17T13:42:55.979Z,30.00
2018-07-17T13:45:25.016Z,30.10
2018-07-17T13:47:54.047Z,30.30
2018-07-17T13:52:51.876Z,30.30
2018-07-17T13:55:20.855Z,30.30
2018-07-17T14:00:18.551Z,30.20
2018-07-17T14:05:16.367Z,30.30
2018-07-17T14:07:45.347Z,30.30
2018-07-17T14:10:14.967Z,30.40
2018-07-17T14:15:12.755Z,30.40
2018-07-17T14:17:41.763Z,30.50
2018-07-17T14:20:10.742Z,30.40
2018-07-17T14:22:39.735Z,30.30
2018-07-17T14:25:08.694Z,30.40
2018-07-17T14:27:37.731Z,30.40
2018-07-17T14:30:06.820Z,30.40
2018-07-17T14:32:35.716Z,30.50
2018-07-17T14:35:05.388Z,30.50
2018-07-17T14:37:34.359Z,30.30
2018-07-17T14:40:03.483Z,30.20
2018-07-17T14:42:32.548Z,30.30
2018-07-17T14:45:01.519Z,30.50
2018-07-17T14:47:30.576Z,30.50
2018-07-17T14:49:59.652Z,30.50
2018-07-17T14:52:28.804Z,30.50
2018-07-17T14:54:57.812Z,30.40
2018-07-17T14:57:27.019Z,30.40
2018-07-17T14:59:56.536Z,30.30
2018-07-17T15:02:25.619Z,30.30
2018-07-17T15:04:54.610Z,30.40
2018-07-17T15:07:23.980Z,30.40
2018-07-17T15:09:53.012Z,30.50
2018-07-17T15:12:21.951Z,30.60
2018-07-17T15:14:51.062Z,30.60
2018-07-17T15:17:20.191Z,30.60
2018-07-17T15:19:49.168Z,30.50
2018-07-17T15:22:18.191Z,30.40
2018-07-17T15:24:47.212Z,30.40
2018-07-17T15:29:45.668Z,30.30
2018-07-17T15:32:14.743Z,30.30
2018-07-17T15:34:43.760Z,30.40
2018-07-17T15:37:12.720Z,30.40
2018-07-17T15:39:41.772Z,30.40
2018-07-17T15:42:10.764Z,30.30
2018-07-17T15:44:39.754Z,30.20
2018-07-17T15:47:08.765Z,30.10
2018-07-17T15:49:37.811Z,30.10
2018-07-17T15:52:06.822Z,30.10
2018-07-17T15:54:36.912Z,30.00
2018-07-17T15:57:05.924Z,30.00
2018-07-17T15:59:34.958Z,30.00
2018-07-17T16:02:03.984Z,30.00
2018-07-17T16:04:32.968Z,30.00
2018-07-17T16:07:02.022Z,29.90
2018-07-17T16:09:31.071Z,30.00
2018-07-17T16:12:00.203Z,30.00
2018-07-17T16:16:58.092Z,30.00
2018-07-17T16:19:27.598Z,29.90
2018-07-17T16:21:57.501Z,29.80
2018-07-17T16:24:26.814Z,29.80
2018-07-17T16:26:55.966Z,29.80
2018-07-17T16:29:25.040Z,29.80
2018-07-17T16:31:54.387Z,29.80
2018-07-17T16:34:23.405Z,29.80
2018-07-17T16:36:52.415Z,29.80
2018-07-17T16:39:21.494Z,29.70
2018-07-17T16:41:50.456Z,29.70
2018-07-17T16:46:48.219Z,29.70
2018-07-17T16:49:17.276Z,29.80
2018-07-17T16:51:46.468Z,29.70
2018-07-17T16:56:44.359Z,29.60
2018-07-17T16:59:13.815Z,29.50
2018-07-17T17:01:42.873Z,29.40
2018-07-17T17:04:11.968Z,29.30
2018-07-17T17:06:41.020Z,29.30
2018-07-17T17:09:11.471Z,29.20
2018-07-17T17:11:40.975Z,29.20
2018-07-17T17:14:10.315Z,29.10
2018-07-17T17:16:39.656Z,29.00
2018-07-17T17:19:08.840Z,28.90
2018-07-17T17:21:38.027Z,28.90
2018-07-17T17:24:07.047Z,28.90
2018-07-17T17:26:36.154Z,28.80
2018-07-17T17:29:05.284Z,28.80
2018-07-17T17:31:34.235Z,28.80
2018-07-17T17:34:03.282Z,28.70
2018-07-17T17:36:32.469Z,28.70
2018-07-17T17:39:01.378Z,28.60
2018-07-17T17:41:30.448Z,28.50
2018-07-17T17:43:59.499Z,28.50
2018-07-17T17:48:57.210Z,28.40
2018-07-17T17:51:26.219Z,28.40
2018-07-17T17:53:55.233Z,28.40
2018-07-17T17:56:24.252Z,28.30
2018-07-17T17:58:53.240Z,28.30
2018-07-17T18:01:22.280Z,28.30
2018-07-17T18:03:51.270Z,28.20
2018-07-17T18:06:20.300Z,28.20
2018-07-17T18:11:17.980Z,28.10
2018-07-17T18:13:46.983Z,28.00
2018-07-17T18:16:15.998Z,28.00
2018-07-17T18:18:45.095Z,27.90
2018-07-17T18:21:14.134Z,27.80
2018-07-17T18:23:43.212Z,27.70
2018-07-17T18:26:12.269Z,27.70
2018-07-17T18:31:10.087Z,27.60
2018-07-17T18:33:39.172Z,27.50
2018-07-17T18:36:08.292Z,27.40
2018-07-17T18:38:37.365Z,27.30
2018-07-17T18:41:06.439Z,26.80
2018-07-17T18:43:35.618Z,26.40
2018-07-17T18:46:04.984Z,25.90
2018-07-17T18:48:34.105Z,25.40
2018-07-17T18:51:03.113Z,25.00
2018-07-17T18:53:33.051Z,24.70
2018-07-17T18:56:02.067Z,24.50
2018-07-17T18:58:31.137Z,24.20
2018-07-17T19:01:00.144Z,23.90
2018-07-17T19:03:29.184Z,23.60
2018-07-17T19:05:58.275Z,23.30
2018-07-17T19:08:27.556Z,23.10
2018-07-17T19:10:56.654Z,22.90
2018-07-17T19:13:25.699Z,22.80
2018-07-17T19:15:54.906Z,22.80
2018-07-17T19:18:23.949Z,22.50
2018-07-17T19:20:53.013Z,22.40
2018-07-17T19:23:22.161Z,22.30
2018-07-17T19:25:52.192Z,22.20
2018-07-17T19:28:21.281Z,22.20
2018-07-17T19:33:19.197Z,22.00
2018-07-17T19:35:48.405Z,21.90
2018-07-17T19:38:17.399Z,21.90
2018-07-17T19:40:46.602Z,21.90
2018-07-17T19:48:13.019Z,22.10
2018-07-17T19:50:42.138Z,22.00
2018-07-17T19:53:11.934Z,22.10
2018-07-17T19:55:41.039Z,22.10
2018-07-17T19:58:10.116Z,22.20
2018-07-17T20:00:39.173Z,22.10
2018-07-17T20:03:08.943Z,22.00
2018-07-17T20:08:07.583Z,21.90
2018-07-17T20:10:36.681Z,22.00
2018-07-17T20:15:34.636Z,22.00
2018-07-17T20:18:03.846Z,22.00
2018-07-17T20:20:33.469Z,22.00
2018-07-17T20:23:02.763Z,22.00
2018-07-17T20:25:31.935Z,21.90
2018-07-17T20:28:01.060Z,21.90
2018-07-17T20:30:30.111Z,21.90
2018-07-17T20:32:59.281Z,21.90
2018-07-17T20:35:29.440Z,21.90
2018-07-17T20:37:58.489Z,21.80
2018-07-17T20:40:27.514Z,21.80
2018-07-17T20:42:56.678Z,21.70
2018-07-17T20:47:54.452Z,21.80
2018-07-17T20:50:23.502Z,21.80
2018-07-17T20:52:52.609Z,21.70
2018-07-17T20:55:21.585Z,21.70
2018-07-17T20:57:50.600Z,21.60
2018-07-17T21:02:48.331Z,21.50
2018-07-17T21:05:17.375Z,21.40
2018-07-17T21:07:46.371Z,21.50
2018-07-17T21:10:15.408Z,21.50
2018-07-17T21:15:13.092Z,21.40
2018-07-17T21:17:42.153Z,21.40
2018-07-17T21:20:11.271Z,21.40
2018-07-17T21:22:40.314Z,21.40
2018-07-17T21:25:09.311Z,21.30
2018-07-17T21:27:38.312Z,21.30
2018-07-17T21:30:07.335Z,21.30
2018-07-17T21:35:05.023Z,21.30
2018-07-17T21:37:34.588Z,21.20
2018-07-17T21:40:03.686Z,21.30
2018-07-17T21:42:32.730Z,21.20
2018-07-17T21:45:01.785Z,21.20
2018-07-17T21:47:30.982Z,21.20
2018-07-17T21:50:00.108Z,21.30
2018-07-17T21:52:29.806Z,21.20
2018-07-17T21:57:27.479Z,21.20
2018-07-17T21:59:56.495Z,21.20
2018-07-17T22:02:25.796Z,21.20
2018-07-17T22:04:54.771Z,21.10
2018-07-17T22:07:23.939Z,21.10
2018-07-17T22:09:52.947Z,21.10
2018-07-17T22:12:22.684Z,21.10
2018-07-17T22:14:51.680Z,21.10
2018-07-17T22:17:20.720Z,21.00
2018-07-17T22:19:49.686Z,21.00
2018-07-17T22:22:18.713Z,21.00
2018-07-17T22:24:47.742Z,21.00
2018-07-17T22:27:16.789Z,20.90
2018-07-17T22:29:45.780Z,20.80
2018-07-17T22:34:43.404Z,20.80
2018-07-17T22:37:12.473Z,20.70
2018-07-17T22:39:41.396Z,20.60
2018-07-17T22:42:10.391Z,20.60
2018-07-17T22:44:39.378Z,20.60
2018-07-17T22:47:08.919Z,20.50
2018-07-17T22:49:37.934Z,20.50
2018-07-17T22:52:07.156Z,20.50
2018-07-17T22:54:36.161Z,20.50
2018-07-17T22:57:05.230Z,20.50
2018-07-17T22:59:34.425Z,20.40
2018-07-17T23:04:32.200Z,20.30
2018-07-17T23:07:01.193Z,20.20
2018-07-17T23:09:30.230Z,20.10
2018-07-17T23:14:27.935Z,20.10
2018-07-17T23:16:56.910Z,20.10
2018-07-17T23:19:26.033Z,20.00
2018-07-17T23:24:23.632Z,19.90
2018-07-17T23:29:21.315Z,20.00
2018-07-17T23:31:50.270Z,20.00
2018-07-17T23:34:19.267Z,20.00
2018-07-17T23:36:48.275Z,19.90
2018-07-17T23:39:17.227Z,19.90
2018-07-17T23:44:14.891Z,19.70
2018-07-17T23:46:43.874Z,19.80
2018-07-17T23:49:18.235Z,19.80
2018-07-17T23:51:47.195Z,19.90
2018-07-17T23:54:16.167Z,19.90
2018-07-17T23:59:13.912Z,19.80
